sensor_id;sensor_type;location;lat;lon;timestamp;temperature;humidity
67050;DHT22;53955;52.442;13.284;2023-04-24T00:01:34;15.30;62.20
67050;DHT22;53955;52.442;13.284;2023-04-24T00:04:03;15.30;62.50
67050;DHT22;53955;52.442;13.284;2023-04-24T00:06:30;15.40;61.30
67050;DHT22;53955;52.442;13.284;2023-04-24T00:08:58;15.50;61.00
67050;DHT22;53955;52.442;13.284;2023-04-24T00:11:25;15.50;61.50
67050;DHT22;53955;52.442;13.284;2023-04-24T00:13:52;15.50;61.90
67050;DHT22;53955;52.442;13.284;2023-04-24T00:16:18;15.40;62.70
67050;DHT22;53955;52.442;13.284;2023-04-24T00:18:45;15.50;61.90
67050;DHT22;53955;52.442;13.284;2023-04-24T00:21:14;15.40;61.60
67050;DHT22;53955;52.442;13.284;2023-04-24T00:23:41;15.60;61.70
67050;DHT22;53955;52.442;13.284;2023-04-24T00:26:08;15.60;61.30
67050;DHT22;53955;52.442;13.284;2023-04-24T00:28:34;15.40;63.00
67050;DHT22;53955;52.442;13.284;2023-04-24T00:31:01;15.50;62.50
67050;DHT22;53955;52.442;13.284;2023-04-24T00:33:27;15.50;62.60
67050;DHT22;53955;52.442;13.284;2023-04-24T00:35:54;15.50;62.60
67050;DHT22;53955;52.442;13.284;2023-04-24T00:38:22;15.50;62.50
67050;DHT22;53955;52.442;13.284;2023-04-24T00:40:48;15.40;63.00
67050;DHT22;53955;52.442;13.284;2023-04-24T00:43:15;15.30;65.10
67050;DHT22;53955;52.442;13.284;2023-04-24T00:45:42;15.00;66.60
67050;DHT22;53955;52.442;13.284;2023-04-24T00:48:09;15.00;66.20
67050;DHT22;53955;52.442;13.284;2023-04-24T00:50:36;15.10;66.00
67050;DHT22;53955;52.442;13.284;2023-04-24T00:53:04;15.10;66.30
67050;DHT22;53955;52.442;13.284;2023-04-24T00:55:32;15.20;66.80
67050;DHT22;53955;52.442;13.284;2023-04-24T00:57:59;15.10;66.10
67050;DHT22;53955;52.442;13.284;2023-04-24T01:00:26;15.20;66.50
67050;DHT22;53955;52.442;13.284;2023-04-24T01:02:53;15.30;65.80
67050;DHT22;53955;52.442;13.284;2023-04-24T01:05:20;15.40;64.30
67050;DHT22;53955;52.442;13.284;2023-04-24T01:07:46;15.40;64.00
67050;DHT22;53955;52.442;13.284;2023-04-24T01:10:15;15.40;65.80
67050;DHT22;53955;52.442;13.284;2023-04-24T01:12:44;15.40;65.90
67050;DHT22;53955;52.442;13.284;2023-04-24T01:15:10;15.40;66.20
67050;DHT22;53955;52.442;13.284;2023-04-24T01:17:37;15.30;67.50
67050;DHT22;53955;52.442;13.284;2023-04-24T01:20:05;15.40;65.70
67050;DHT22;53955;52.442;13.284;2023-04-24T01:22:34;15.30;68.10
67050;DHT22;53955;52.442;13.284;2023-04-24T01:25:00;15.30;69.40
67050;DHT22;53955;52.442;13.284;2023-04-24T01:27:27;15.20;69.80
67050;DHT22;53955;52.442;13.284;2023-04-24T01:29:54;15.30;69.50
67050;DHT22;53955;52.442;13.284;2023-04-24T01:32:21;15.20;69.30
67050;DHT22;53955;52.442;13.284;2023-04-24T01:34:48;15.20;69.50
67050;DHT22;53955;52.442;13.284;2023-04-24T01:37:15;15.20;69.80
67050;DHT22;53955;52.442;13.284;2023-04-24T01:39:43;15.10;69.30
67050;DHT22;53955;52.442;13.284;2023-04-24T01:42:10;15.20;69.70
67050;DHT22;53955;52.442;13.284;2023-04-24T01:44:36;15.10;69.40
67050;DHT22;53955;52.442;13.284;2023-04-24T01:47:04;15.20;69.20
67050;DHT22;53955;52.442;13.284;2023-04-24T01:49:31;15.20;68.50
67050;DHT22;53955;52.442;13.284;2023-04-24T01:51:59;15.20;69.30
67050;DHT22;53955;52.442;13.284;2023-04-24T01:54:25;15.10;70.10
67050;DHT22;53955;52.442;13.284;2023-04-24T01:56:53;15.10;69.40
67050;DHT22;53955;52.442;13.284;2023-04-24T01:59:20;15.10;69.90
67050;DHT22;53955;52.442;13.284;2023-04-24T02:01:48;15.10;69.60
67050;DHT22;53955;52.442;13.284;2023-04-24T02:04:14;15.10;69.50
67050;DHT22;53955;52.442;13.284;2023-04-24T02:06:41;15.10;69.30
67050;DHT22;53955;52.442;13.284;2023-04-24T02:09:07;15.10;69.70
67050;DHT22;53955;52.442;13.284;2023-04-24T02:11:34;15.10;69.70
67050;DHT22;53955;52.442;13.284;2023-04-24T02:14:02;15.10;69.80
67050;DHT22;53955;52.442;13.284;2023-04-24T02:16:29;15.00;69.90
67050;DHT22;53955;52.442;13.284;2023-04-24T02:18:58;15.10;69.70
67050;DHT22;53955;52.442;13.284;2023-04-24T02:21:24;15.10;69.70
67050;DHT22;53955;52.442;13.284;2023-04-24T02:23:52;15.10;69.80
67050;DHT22;53955;52.442;13.284;2023-04-24T02:26:19;15.20;70.20
67050;DHT22;53955;52.442;13.284;2023-04-24T02:28:46;15.10;70.00
67050;DHT22;53955;52.442;13.284;2023-04-24T02:31:13;15.00;70.20
67050;DHT22;53955;52.442;13.284;2023-04-24T02:33:40;15.10;69.70
67050;DHT22;53955;52.442;13.284;2023-04-24T02:36:07;15.10;69.60
67050;DHT22;53955;52.442;13.284;2023-04-24T02:38:33;15.20;69.50
67050;DHT22;53955;52.442;13.284;2023-04-24T02:41:00;15.20;69.60
67050;DHT22;53955;52.442;13.284;2023-04-24T02:43:27;15.30;69.10
67050;DHT22;53955;52.442;13.284;2023-04-24T02:45:54;15.30;68.70
67050;DHT22;53955;52.442;13.284;2023-04-24T02:48:21;15.40;68.40
67050;DHT22;53955;52.442;13.284;2023-04-24T02:50:49;15.40;68.60
67050;DHT22;53955;52.442;13.284;2023-04-24T02:53:15;15.40;69.80
67050;DHT22;53955;52.442;13.284;2023-04-24T02:55:42;15.30;69.20
67050;DHT22;53955;52.442;13.284;2023-04-24T02:58:09;15.40;69.00
67050;DHT22;53955;52.442;13.284;2023-04-24T03:00:38;15.40;68.80
67050;DHT22;53955;52.442;13.284;2023-04-24T03:03:05;15.40;69.50
67050;DHT22;53955;52.442;13.284;2023-04-24T03:05:33;15.30;69.50
67050;DHT22;53955;52.442;13.284;2023-04-24T03:08:00;15.30;69.30
67050;DHT22;53955;52.442;13.284;2023-04-24T03:10:26;15.40;69.80
67050;DHT22;53955;52.442;13.284;2023-04-24T03:12:53;15.40;69.20
67050;DHT22;53955;52.442;13.284;2023-04-24T03:15:20;15.50;68.30
67050;DHT22;53955;52.442;13.284;2023-04-24T03:17:46;15.40;67.90
67050;DHT22;53955;52.442;13.284;2023-04-24T03:20:13;15.40;69.60
67050;DHT22;53955;52.442;13.284;2023-04-24T03:22:41;15.40;69.20
67050;DHT22;53955;52.442;13.284;2023-04-24T03:25:09;15.40;70.20
67050;DHT22;53955;52.442;13.284;2023-04-24T03:27:35;15.40;68.30
67050;DHT22;53955;52.442;13.284;2023-04-24T03:30:03;15.40;68.10
67050;DHT22;53955;52.442;13.284;2023-04-24T03:32:29;15.50;68.70
67050;DHT22;53955;52.442;13.284;2023-04-24T03:34:57;15.30;69.80
67050;DHT22;53955;52.442;13.284;2023-04-24T03:37:24;15.40;69.30
67050;DHT22;53955;52.442;13.284;2023-04-24T03:39:53;15.40;70.80
67050;DHT22;53955;52.442;13.284;2023-04-24T03:42:19;15.40;70.50
67050;DHT22;53955;52.442;13.284;2023-04-24T03:44:46;15.40;70.00
67050;DHT22;53955;52.442;13.284;2023-04-24T03:47:12;15.50;68.10
67050;DHT22;53955;52.442;13.284;2023-04-24T03:49:39;15.30;69.60
67050;DHT22;53955;52.442;13.284;2023-04-24T03:52:05;15.50;68.60
67050;DHT22;53955;52.442;13.284;2023-04-24T03:54:32;15.50;68.60
67050;DHT22;53955;52.442;13.284;2023-04-24T03:57:00;15.40;69.00
67050;DHT22;53955;52.442;13.284;2023-04-24T03:59:28;15.50;68.40
67050;DHT22;53955;52.442;13.284;2023-04-24T04:01:55;15.60;68.50
67050;DHT22;53955;52.442;13.284;2023-04-24T04:04:21;15.50;68.80
67050;DHT22;53955;52.442;13.284;2023-04-24T04:06:48;15.50;68.40
67050;DHT22;53955;52.442;13.284;2023-04-24T04:09:15;15.40;69.10
67050;DHT22;53955;52.442;13.284;2023-04-24T04:11:41;15.40;70.40
67050;DHT22;53955;52.442;13.284;2023-04-24T04:14:09;15.40;69.20
67050;DHT22;53955;52.442;13.284;2023-04-24T04:16:36;15.60;68.80
67050;DHT22;53955;52.442;13.284;2023-04-24T04:19:02;15.50;69.00
67050;DHT22;53955;52.442;13.284;2023-04-24T04:21:29;15.60;68.70
67050;DHT22;53955;52.442;13.284;2023-04-24T04:23:56;15.60;68.70
67050;DHT22;53955;52.442;13.284;2023-04-24T04:26:23;15.60;69.00
67050;DHT22;53955;52.442;13.284;2023-04-24T04:28:50;15.60;68.60
67050;DHT22;53955;52.442;13.284;2023-04-24T04:31:19;15.70;68.00
67050;DHT22;53955;52.442;13.284;2023-04-24T04:33:46;15.70;68.00
67050;DHT22;53955;52.442;13.284;2023-04-24T04:36:12;15.60;68.30
67050;DHT22;53955;52.442;13.284;2023-04-24T04:38:39;15.70;67.90
67050;DHT22;53955;52.442;13.284;2023-04-24T04:41:06;15.70;67.90
67050;DHT22;53955;52.442;13.284;2023-04-24T04:43:32;15.70;68.60
67050;DHT22;53955;52.442;13.284;2023-04-24T04:46:00;15.70;68.20
67050;DHT22;53955;52.442;13.284;2023-04-24T04:48:30;15.80;67.70
67050;DHT22;53955;52.442;13.284;2023-04-24T04:50:56;15.70;68.50
67050;DHT22;53955;52.442;13.284;2023-04-24T04:53:23;15.80;67.50
67050;DHT22;53955;52.442;13.284;2023-04-24T04:55:50;15.80;68.00
67050;DHT22;53955;52.442;13.284;2023-04-24T04:58:17;15.90;67.60
67050;DHT22;53955;52.442;13.284;2023-04-24T05:00:43;15.90;67.40
67050;DHT22;53955;52.442;13.284;2023-04-24T05:03:10;15.90;67.20
67050;DHT22;53955;52.442;13.284;2023-04-24T05:05:38;16.00;66.90
67050;DHT22;53955;52.442;13.284;2023-04-24T05:08:06;16.10;67.40
67050;DHT22;53955;52.442;13.284;2023-04-24T05:10:33;16.40;66.20
67050;DHT22;53955;52.442;13.284;2023-04-24T05:13:00;16.60;63.70
67050;DHT22;53955;52.442;13.284;2023-04-24T05:15:26;16.50;63.60
67050;DHT22;53955;52.442;13.284;2023-04-24T05:17:53;16.60;63.90
67050;DHT22;53955;52.442;13.284;2023-04-24T05:20:20;16.70;63.90
67050;DHT22;53955;52.442;13.284;2023-04-24T05:22:47;17.00;63.70
67050;DHT22;53955;52.442;13.284;2023-04-24T05:25:14;17.80;60.00
67050;DHT22;53955;52.442;13.284;2023-04-24T05:27:41;18.50;56.50
67050;DHT22;53955;52.442;13.284;2023-04-24T05:30:08;19.50;52.90
67050;DHT22;53955;52.442;13.284;2023-04-24T05:32:35;19.80;50.70
67050;DHT22;53955;52.442;13.284;2023-04-24T05:35:02;19.90;50.40
67050;DHT22;53955;52.442;13.284;2023-04-24T05:37:29;21.20;46.70
67050;DHT22;53955;52.442;13.284;2023-04-24T05:39:57;22.70;42.80
67050;DHT22;53955;52.442;13.284;2023-04-24T05:42:23;23.20;41.40
67050;DHT22;53955;52.442;13.284;2023-04-24T05:44:50;23.10;41.00
67050;DHT22;53955;52.442;13.284;2023-04-24T05:47:19;22.80;41.60
67050;DHT22;53955;52.442;13.284;2023-04-24T05:49:47;23.20;40.70
67050;DHT22;53955;52.442;13.284;2023-04-24T05:52:13;23.30;39.80
67050;DHT22;53955;52.442;13.284;2023-04-24T05:54:40;23.20;41.20
67050;DHT22;53955;52.442;13.284;2023-04-24T05:57:08;24.30;36.80
67050;DHT22;53955;52.442;13.284;2023-04-24T05:59:36;25.70;33.60
67050;DHT22;53955;52.442;13.284;2023-04-24T06:02:03;26.50;32.10
67050;DHT22;53955;52.442;13.284;2023-04-24T06:04:31;27.10;30.80
67050;DHT22;53955;52.442;13.284;2023-04-24T06:06:57;26.70;31.40
67050;DHT22;53955;52.442;13.284;2023-04-24T06:09:25;27.20;29.30
67050;DHT22;53955;52.442;13.284;2023-04-24T06:11:51;27.20;29.20
67050;DHT22;53955;52.442;13.284;2023-04-24T06:14:20;26.10;32.40
67050;DHT22;53955;52.442;13.284;2023-04-24T06:16:46;25.90;32.20
67050;DHT22;53955;52.442;13.284;2023-04-24T06:19:13;26.00;31.70
67050;DHT22;53955;52.442;13.284;2023-04-24T06:21:40;26.90;29.50
67050;DHT22;53955;52.442;13.284;2023-04-24T06:24:06;28.00;28.70
67050;DHT22;53955;52.442;13.284;2023-04-24T06:26:33;29.70;25.70
67050;DHT22;53955;52.442;13.284;2023-04-24T06:28:59;32.00;22.90
67050;DHT22;53955;52.442;13.284;2023-04-24T06:31:27;33.30;20.50
67050;DHT22;53955;52.442;13.284;2023-04-24T06:33:54;34.70;18.90
67050;DHT22;53955;52.442;13.284;2023-04-24T06:36:20;34.30;18.60
67050;DHT22;53955;52.442;13.284;2023-04-24T06:38:47;33.20;19.50
67050;DHT22;53955;52.442;13.284;2023-04-24T06:41:14;32.50;20.60
67050;DHT22;53955;52.442;13.284;2023-04-24T06:43:40;31.70;21.00
67050;DHT22;53955;52.442;13.284;2023-04-24T06:46:07;31.30;20.70
67050;DHT22;53955;52.442;13.284;2023-04-24T06:48:35;30.20;22.40
67050;DHT22;53955;52.442;13.284;2023-04-24T06:51:02;28.80;23.90
67050;DHT22;53955;52.442;13.284;2023-04-24T06:53:28;27.70;25.70
67050;DHT22;53955;52.442;13.284;2023-04-24T06:55:55;26.70;26.60
67050;DHT22;53955;52.442;13.284;2023-04-24T06:58:23;25.80;28.60
67050;DHT22;53955;52.442;13.284;2023-04-24T07:00:50;24.80;30.70
67050;DHT22;53955;52.442;13.284;2023-04-24T07:03:17;24.40;31.60
67050;DHT22;53955;52.442;13.284;2023-04-24T07:05:45;23.90;32.50
67050;DHT22;53955;52.442;13.284;2023-04-24T07:08:11;23.70;33.10
67050;DHT22;53955;52.442;13.284;2023-04-24T07:10:39;23.80;33.20
67050;DHT22;53955;52.442;13.284;2023-04-24T07:13:05;24.00;32.10
67050;DHT22;53955;52.442;13.284;2023-04-24T07:15:32;24.10;31.40
67050;DHT22;53955;52.442;13.284;2023-04-24T07:17:59;24.20;30.20
67050;DHT22;53955;52.442;13.284;2023-04-24T07:20:26;24.40;29.80
67050;DHT22;53955;52.442;13.284;2023-04-24T07:22:54;24.20;30.10
67050;DHT22;53955;52.442;13.284;2023-04-24T07:25:20;24.50;31.00
67050;DHT22;53955;52.442;13.284;2023-04-24T07:27:47;24.80;30.20
67050;DHT22;53955;52.442;13.284;2023-04-24T07:30:14;24.90;29.10
67050;DHT22;53955;52.442;13.284;2023-04-24T07:32:41;25.00;27.40
67050;DHT22;53955;52.442;13.284;2023-04-24T07:35:08;24.90;27.20
67050;DHT22;53955;52.442;13.284;2023-04-24T07:37:35;24.90;27.60
67050;DHT22;53955;52.442;13.284;2023-04-24T07:40:04;24.80;27.90
67050;DHT22;53955;52.442;13.284;2023-04-24T07:42:31;24.70;28.80
67050;DHT22;53955;52.442;13.284;2023-04-24T07:44:59;24.50;29.30
67050;DHT22;53955;52.442;13.284;2023-04-24T07:47:26;24.50;29.80
67050;DHT22;53955;52.442;13.284;2023-04-24T07:49:52;24.50;31.60
67050;DHT22;53955;52.442;13.284;2023-04-24T07:52:19;24.60;30.30
67050;DHT22;53955;52.442;13.284;2023-04-24T07:54:46;24.70;29.70
67050;DHT22;53955;52.442;13.284;2023-04-24T07:57:14;24.40;28.90
67050;DHT22;53955;52.442;13.284;2023-04-24T07:59:40;24.40;29.60
67050;DHT22;53955;52.442;13.284;2023-04-24T08:02:07;24.80;30.10
67050;DHT22;53955;52.442;13.284;2023-04-24T08:04:34;24.90;27.80
67050;DHT22;53955;52.442;13.284;2023-04-24T08:07:01;24.90;27.70
67050;DHT22;53955;52.442;13.284;2023-04-24T08:09:27;24.80;28.00
67050;DHT22;53955;52.442;13.284;2023-04-24T08:11:54;24.50;26.80
67050;DHT22;53955;52.442;13.284;2023-04-24T08:14:22;24.10;27.70
67050;DHT22;53955;52.442;13.284;2023-04-24T08:16:48;23.80;28.00
67050;DHT22;53955;52.442;13.284;2023-04-24T08:19:15;23.70;28.20
67050;DHT22;53955;52.442;13.284;2023-04-24T08:21:42;23.60;29.00
67050;DHT22;53955;52.442;13.284;2023-04-24T08:24:08;23.60;27.80
67050;DHT22;53955;52.442;13.284;2023-04-24T08:26:35;23.40;28.60
67050;DHT22;53955;52.442;13.284;2023-04-24T08:29:01;23.40;28.40
67050;DHT22;53955;52.442;13.284;2023-04-24T08:31:29;23.10;30.10
67050;DHT22;53955;52.442;13.284;2023-04-24T08:33:56;23.10;29.80
67050;DHT22;53955;52.442;13.284;2023-04-24T08:36:23;23.00;29.10
67050;DHT22;53955;52.442;13.284;2023-04-24T08:38:49;22.60;30.80
67050;DHT22;53955;52.442;13.284;2023-04-24T08:41:17;22.30;30.80
67050;DHT22;53955;52.442;13.284;2023-04-24T08:43:46;22.30;31.50
67050;DHT22;53955;52.442;13.284;2023-04-24T08:46:15;22.40;32.40
67050;DHT22;53955;52.442;13.284;2023-04-24T08:48:44;22.30;32.10
67050;DHT22;53955;52.442;13.284;2023-04-24T08:51:11;22.40;32.00
67050;DHT22;53955;52.442;13.284;2023-04-24T08:53:38;22.40;31.90
67050;DHT22;53955;52.442;13.284;2023-04-24T08:56:05;22.30;32.20
67050;DHT22;53955;52.442;13.284;2023-04-24T08:58:31;22.20;32.80
67050;DHT22;53955;52.442;13.284;2023-04-24T09:00:59;22.10;33.20
67050;DHT22;53955;52.442;13.284;2023-04-24T09:03:27;21.90;34.20
67050;DHT22;53955;52.442;13.284;2023-04-24T09:05:57;21.80;33.90
67050;DHT22;53955;52.442;13.284;2023-04-24T09:08:25;21.80;34.30
67050;DHT22;53955;52.442;13.284;2023-04-24T09:10:52;21.60;34.70
67050;DHT22;53955;52.442;13.284;2023-04-24T09:13:19;21.50;35.10
67050;DHT22;53955;52.442;13.284;2023-04-24T09:15:46;21.40;35.90
67050;DHT22;53955;52.442;13.284;2023-04-24T09:18:13;21.20;37.40
67050;DHT22;53955;52.442;13.284;2023-04-24T09:20:59;21.00;37.50
67050;DHT22;53955;52.442;13.284;2023-04-24T09:23:27;21.10;36.90
67050;DHT22;53955;52.442;13.284;2023-04-24T09:25:54;21.10;37.70
67050;DHT22;53955;52.442;13.284;2023-04-24T09:28:25;21.20;37.00
67050;DHT22;53955;52.442;13.284;2023-04-24T09:31:05;21.30;36.60
67050;DHT22;53955;52.442;13.284;2023-04-24T09:33:32;21.30;36.20
67050;DHT22;53955;52.442;13.284;2023-04-24T09:36:00;21.30;35.50
67050;DHT22;53955;52.442;13.284;2023-04-24T09:38:32;21.10;35.20
67050;DHT22;53955;52.442;13.284;2023-04-24T09:41:00;21.00;35.90
67050;DHT22;53955;52.442;13.284;2023-04-24T09:43:27;21.20;35.80
67050;DHT22;53955;52.442;13.284;2023-04-24T09:45:56;21.40;34.70
67050;DHT22;53955;52.442;13.284;2023-04-24T09:48:30;21.30;36.20
67050;DHT22;53955;52.442;13.284;2023-04-24T09:50:57;21.30;36.10
67050;DHT22;53955;52.442;13.284;2023-04-24T09:53:25;21.30;36.30
67050;DHT22;53955;52.442;13.284;2023-04-24T09:55:52;21.30;35.30
67050;DHT22;53955;52.442;13.284;2023-04-24T09:58:21;21.10;35.70
67050;DHT22;53955;52.442;13.284;2023-04-24T10:00:53;21.00;35.70
67050;DHT22;53955;52.442;13.284;2023-04-24T10:03:20;21.10;36.00
67050;DHT22;53955;52.442;13.284;2023-04-24T10:05:47;21.20;36.80
67050;DHT22;53955;52.442;13.284;2023-04-24T10:08:13;21.20;35.90
67050;DHT22;53955;52.442;13.284;2023-04-24T10:10:42;21.40;36.30
67050;DHT22;53955;52.442;13.284;2023-04-24T10:13:10;21.50;34.40
67050;DHT22;53955;52.442;13.284;2023-04-24T10:15:37;21.00;35.30
67050;DHT22;53955;52.442;13.284;2023-04-24T10:18:04;21.00;37.20
67050;DHT22;53955;52.442;13.284;2023-04-24T10:20:32;21.00;36.60
67050;DHT22;53955;52.442;13.284;2023-04-24T10:23:00;21.20;37.10
67050;DHT22;53955;52.442;13.284;2023-04-24T10:25:28;21.10;35.70
67050;DHT22;53955;52.442;13.284;2023-04-24T10:27:58;20.80;37.30
67050;DHT22;53955;52.442;13.284;2023-04-24T10:30:26;20.50;36.80
67050;DHT22;53955;52.442;13.284;2023-04-24T10:32:53;20.30;37.50
67050;DHT22;53955;52.442;13.284;2023-04-24T10:35:22;20.20;38.90
67050;DHT22;53955;52.442;13.284;2023-04-24T10:37:56;20.00;39.30
67050;DHT22;53955;52.442;13.284;2023-04-24T10:40:26;19.80;39.10
67050;DHT22;53955;52.442;13.284;2023-04-24T10:42:53;19.60;39.90
67050;DHT22;53955;52.442;13.284;2023-04-24T10:45:22;19.60;40.20
67050;DHT22;53955;52.442;13.284;2023-04-24T10:47:57;19.50;40.30
67050;DHT22;53955;52.442;13.284;2023-04-24T10:50:26;19.40;40.30
67050;DHT22;53955;52.442;13.284;2023-04-24T10:52:53;19.40;40.60
67050;DHT22;53955;52.442;13.284;2023-04-24T10:55:44;19.60;40.90
67050;DHT22;53955;52.442;13.284;2023-04-24T10:58:11;19.90;40.20
67050;DHT22;53955;52.442;13.284;2023-04-24T11:00:40;20.30;38.90
67050;DHT22;53955;52.442;13.284;2023-04-24T11:03:22;20.70;38.30
67050;DHT22;53955;52.442;13.284;2023-04-24T11:05:51;21.10;36.60
67050;DHT22;53955;52.442;13.284;2023-04-24T11:08:23;21.40;35.90
67050;DHT22;53955;52.442;13.284;2023-04-24T11:10:56;21.30;35.70
67050;DHT22;53955;52.442;13.284;2023-04-24T11:13:24;21.40;35.80
67050;DHT22;53955;52.442;13.284;2023-04-24T11:16:15;21.30;35.40
67050;DHT22;53955;52.442;13.284;2023-04-24T11:18:42;21.30;36.10
67050;DHT22;53955;52.442;13.284;2023-04-24T11:21:12;21.10;35.70
67050;DHT22;53955;52.442;13.284;2023-04-24T11:23:39;21.00;35.30
67050;DHT22;53955;52.442;13.284;2023-04-24T11:26:16;21.00;35.90
67050;DHT22;53955;52.442;13.284;2023-04-24T11:28:47;21.10;35.60
67050;DHT22;53955;52.442;13.284;2023-04-24T11:31:40;20.90;37.80
67050;DHT22;53955;52.442;13.284;2023-04-24T11:34:08;20.40;40.50
67050;DHT22;53955;52.442;13.284;2023-04-24T11:36:36;20.20;41.40
67050;DHT22;53955;52.442;13.284;2023-04-24T11:39:03;20.10;42.90
67050;DHT22;53955;52.442;13.284;2023-04-24T11:41:30;20.20;42.50
67050;DHT22;53955;52.442;13.284;2023-04-24T11:43:57;20.20;42.50
67050;DHT22;53955;52.442;13.284;2023-04-24T11:46:27;20.00;43.50
67050;DHT22;53955;52.442;13.284;2023-04-24T11:48:55;20.00;44.50
67050;DHT22;53955;52.442;13.284;2023-04-24T11:51:22;20.00;43.80
67050;DHT22;53955;52.442;13.284;2023-04-24T11:53:49;20.20;43.60
67050;DHT22;53955;52.442;13.284;2023-04-24T11:56:17;20.20;44.70
67050;DHT22;53955;52.442;13.284;2023-04-24T11:58:45;20.20;42.90
67050;DHT22;53955;52.442;13.284;2023-04-24T12:01:12;20.20;42.80
67050;DHT22;53955;52.442;13.284;2023-04-24T12:03:38;20.00;42.40
67050;DHT22;53955;52.442;13.284;2023-04-24T12:06:07;20.10;40.90
67050;DHT22;53955;52.442;13.284;2023-04-24T12:08:34;20.10;41.70
67050;DHT22;53955;52.442;13.284;2023-04-24T12:11:01;20.10;41.30
67050;DHT22;53955;52.442;13.284;2023-04-24T12:13:28;20.30;42.00
67050;DHT22;53955;52.442;13.284;2023-04-24T12:15:56;20.60;41.70
67050;DHT22;53955;52.442;13.284;2023-04-24T12:18:23;20.90;41.70
67050;DHT22;53955;52.442;13.284;2023-04-24T12:20:50;21.00;38.80
67050;DHT22;53955;52.442;13.284;2023-04-24T12:23:33;21.00;30.60
67050;DHT22;53955;52.442;13.284;2023-04-24T12:26:00;20.90;27.90
67050;DHT22;53955;52.442;13.284;2023-04-24T12:28:35;20.70;29.20
67050;DHT22;53955;52.442;13.284;2023-04-24T12:31:02;20.60;28.70
67050;DHT22;53955;52.442;13.284;2023-04-24T12:33:32;20.70;29.60
67050;DHT22;53955;52.442;13.284;2023-04-24T12:35:59;21.20;26.80
67050;DHT22;53955;52.442;13.284;2023-04-24T12:38:28;21.50;23.90
67050;DHT22;53955;52.442;13.284;2023-04-24T12:41:02;21.70;23.50
67050;DHT22;53955;52.442;13.284;2023-04-24T12:43:30;21.80;23.20
67050;DHT22;53955;52.442;13.284;2023-04-24T12:45:56;21.80;23.70
67050;DHT22;53955;52.442;13.284;2023-04-24T12:48:24;21.70;24.20
67050;DHT22;53955;52.442;13.284;2023-04-24T12:50:51;21.50;22.70
67050;DHT22;53955;52.442;13.284;2023-04-24T12:53:18;21.50;23.00
67050;DHT22;53955;52.442;13.284;2023-04-24T12:55:46;21.40;22.00
67050;DHT22;53955;52.442;13.284;2023-04-24T12:58:18;21.30;23.20
67050;DHT22;53955;52.442;13.284;2023-04-24T13:00:45;21.20;22.90
67050;DHT22;53955;52.442;13.284;2023-04-24T13:03:12;21.30;24.30
67050;DHT22;53955;52.442;13.284;2023-04-24T13:05:38;21.50;23.20
67050;DHT22;53955;52.442;13.284;2023-04-24T13:08:05;21.70;24.00
67050;DHT22;53955;52.442;13.284;2023-04-24T13:10:32;21.80;23.50
67050;DHT22;53955;52.442;13.284;2023-04-24T13:13:00;21.80;22.50
67050;DHT22;53955;52.442;13.284;2023-04-24T13:15:27;21.70;21.60
67050;DHT22;53955;52.442;13.284;2023-04-24T13:17:53;21.60;22.20
67050;DHT22;53955;52.442;13.284;2023-04-24T13:20:20;21.40;21.50
67050;DHT22;53955;52.442;13.284;2023-04-24T13:22:47;21.40;22.50
67050;DHT22;53955;52.442;13.284;2023-04-24T13:25:13;21.40;21.10
67050;DHT22;53955;52.442;13.284;2023-04-24T13:27:42;21.40;20.30
67050;DHT22;53955;52.442;13.284;2023-04-24T13:30:11;21.20;19.30
67050;DHT22;53955;52.442;13.284;2023-04-24T13:32:38;21.00;21.00
67050;DHT22;53955;52.442;13.284;2023-04-24T13:35:05;20.70;22.60
67050;DHT22;53955;52.442;13.284;2023-04-24T13:37:32;20.80;23.40
67050;DHT22;53955;52.442;13.284;2023-04-24T13:39:58;20.80;22.60
67050;DHT22;53955;52.442;13.284;2023-04-24T13:42:25;21.00;21.60
67050;DHT22;53955;52.442;13.284;2023-04-24T13:44:52;21.00;20.60
67050;DHT22;53955;52.442;13.284;2023-04-24T13:47:20;21.00;19.80
67050;DHT22;53955;52.442;13.284;2023-04-24T13:49:47;20.60;22.00
67050;DHT22;53955;52.442;13.284;2023-04-24T13:52:13;20.50;22.30
67050;DHT22;53955;52.442;13.284;2023-04-24T13:54:41;20.50;23.10
67050;DHT22;53955;52.442;13.284;2023-04-24T13:57:07;20.40;24.10
67050;DHT22;53955;52.442;13.284;2023-04-24T13:59:34;20.60;25.10
67050;DHT22;53955;52.442;13.284;2023-04-24T14:02:00;20.80;24.30
67050;DHT22;53955;52.442;13.284;2023-04-24T14:04:28;21.10;22.90
67050;DHT22;53955;52.442;13.284;2023-04-24T14:06:55;21.20;22.30
67050;DHT22;53955;52.442;13.284;2023-04-24T14:09:23;21.50;23.10
67050;DHT22;53955;52.442;13.284;2023-04-24T14:11:49;21.60;22.00
67050;DHT22;53955;52.442;13.284;2023-04-24T14:14:16;21.60;21.70
67050;DHT22;53955;52.442;13.284;2023-04-24T14:16:42;21.50;20.90
67050;DHT22;53955;52.442;13.284;2023-04-24T14:19:09;21.30;20.00
67050;DHT22;53955;52.442;13.284;2023-04-24T14:21:37;21.30;20.10
67050;DHT22;53955;52.442;13.284;2023-04-24T14:24:04;21.00;20.10
67050;DHT22;53955;52.442;13.284;2023-04-24T14:26:30;20.80;23.60
67050;DHT22;53955;52.442;13.284;2023-04-24T14:28:57;20.90;21.90
67050;DHT22;53955;52.442;13.284;2023-04-24T14:31:25;20.90;22.50
67050;DHT22;53955;52.442;13.284;2023-04-24T14:33:51;20.90;22.50
67050;DHT22;53955;52.442;13.284;2023-04-24T14:36:18;21.10;22.30
67050;DHT22;53955;52.442;13.284;2023-04-24T14:38:46;21.00;20.20
67050;DHT22;53955;52.442;13.284;2023-04-24T14:41:12;21.10;21.30
67050;DHT22;53955;52.442;13.284;2023-04-24T14:43:39;21.00;22.20
67050;DHT22;53955;52.442;13.284;2023-04-24T14:46:07;20.90;22.00
67050;DHT22;53955;52.442;13.284;2023-04-24T14:48:33;20.90;21.40
67050;DHT22;53955;52.442;13.284;2023-04-24T14:51:00;20.90;20.70
67050;DHT22;53955;52.442;13.284;2023-04-24T14:53:26;20.80;21.90
67050;DHT22;53955;52.442;13.284;2023-04-24T14:55:54;20.60;24.30
67050;DHT22;53955;52.442;13.284;2023-04-24T14:58:21;20.50;23.20
67050;DHT22;53955;52.442;13.284;2023-04-24T15:00:48;20.40;24.10
67050;DHT22;53955;52.442;13.284;2023-04-24T15:03:18;20.40;24.20
67050;DHT22;53955;52.442;13.284;2023-04-24T15:05:45;20.50;23.50
67050;DHT22;53955;52.442;13.284;2023-04-24T15:08:12;20.70;24.40
67050;DHT22;53955;52.442;13.284;2023-04-24T15:10:39;20.70;23.00
67050;DHT22;53955;52.442;13.284;2023-04-24T15:13:07;20.70;22.80
67050;DHT22;53955;52.442;13.284;2023-04-24T15:15:33;20.40;22.60
67050;DHT22;53955;52.442;13.284;2023-04-24T15:18:00;20.30;21.90